sensor_id;sensor_type;location;lat;lon;timestamp;P1;durP1;ratioP1;P2;durP2;ratioP2
22080;SDS011;11207;59.512;18.050;2023-11-18T00:00:49;8.77;;;6.20;;
22080;SDS011;11207;59.512;18.050;2023-11-18T00:03:16;7.30;;;5.73;;
22080;SDS011;11207;59.512;18.050;2023-11-18T00:05:42;7.00;;;5.97;;
22080;SDS011;11207;59.512;18.050;2023-11-18T00:08:08;7.33;;;5.87;;
22080;SDS011;11207;59.512;18.050;2023-11-18T00:10:35;7.50;;;6.27;;
22080;SDS011;11207;59.512;18.050;2023-11-18T00:13:00;7.30;;;5.83;;
22080;SDS011;11207;59.512;18.050;2023-11-18T00:15:29;7.70;;;5.73;;
22080;SDS011;11207;59.512;18.050;2023-11-18T00:17:54;6.20;;;5.60;;
22080;SDS011;11207;59.512;18.050;2023-11-18T00:20:20;6.97;;;5.67;;
22080;SDS011;11207;59.512;18.050;2023-11-18T00:22:45;7.07;;;5.60;;
22080;SDS011;11207;59.512;18.050;2023-11-18T00:25:11;8.80;;;5.93;;
22080;SDS011;11207;59.512;18.050;2023-11-18T00:27:39;9.13;;;5.67;;
22080;SDS011;11207;59.512;18.050;2023-11-18T00:30:05;6.57;;;5.47;;
22080;SDS011;11207;59.512;18.050;2023-11-18T00:32:33;8.70;;;5.80;;
22080;SDS011;11207;59.512;18.050;2023-11-18T00:35:00;6.07;;;5.30;;
22080;SDS011;11207;59.512;18.050;2023-11-18T00:37:26;6.83;;;5.70;;
22080;SDS011;11207;59.512;18.050;2023-11-18T00:39:53;7.80;;;5.70;;
22080;SDS011;11207;59.512;18.050;2023-11-18T00:42:18;7.73;;;5.57;;
22080;SDS011;11207;59.512;18.050;2023-11-18T00:44:44;7.50;;;5.63;;
22080;SDS011;11207;59.512;18.050;2023-11-18T00:47:09;9.50;;;6.40;;
22080;SDS011;11207;59.512;18.050;2023-11-18T00:49:35;7.43;;;5.97;;
22080;SDS011;11207;59.512;18.050;2023-11-18T00:52:01;7.07;;;5.70;;
22080;SDS011;11207;59.512;18.050;2023-11-18T00:54:27;6.33;;;5.67;;
22080;SDS011;11207;59.512;18.050;2023-11-18T00:56:52;8.07;;;6.43;;
22080;SDS011;11207;59.512;18.050;2023-11-18T00:59:18;6.67;;;5.60;;
22080;SDS011;11207;59.512;18.050;2023-11-18T01:01:43;7.33;;;5.47;;
22080;SDS011;11207;59.512;18.050;2023-11-18T01:04:09;8.23;;;5.73;;
22080;SDS011;11207;59.512;18.050;2023-11-18T01:06:35;5.83;;;5.23;;
22080;SDS011;11207;59.512;18.050;2023-11-18T01:09:01;6.83;;;5.87;;
22080;SDS011;11207;59.512;18.050;2023-11-18T01:11:27;7.27;;;5.80;;
22080;SDS011;11207;59.512;18.050;2023-11-18T01:13:53;7.47;;;5.50;;
22080;SDS011;11207;59.512;18.050;2023-11-18T01:16:19;7.37;;;5.73;;
22080;SDS011;11207;59.512;18.050;2023-11-18T01:18:45;7.37;;;6.03;;
22080;SDS011;11207;59.512;18.050;2023-11-18T01:21:11;8.43;;;6.50;;
22080;SDS011;11207;59.512;18.050;2023-11-18T01:23:38;7.47;;;6.17;;
22080;SDS011;11207;59.512;18.050;2023-11-18T01:26:07;7.67;;;5.57;;
22080;SDS011;11207;59.512;18.050;2023-11-18T01:28:33;7.33;;;5.93;;
22080;SDS011;11207;59.512;18.050;2023-11-18T01:31:06;7.87;;;5.90;;
22080;SDS011;11207;59.512;18.050;2023-11-18T01:33:34;6.00;;;5.40;;
22080;SDS011;11207;59.512;18.050;2023-11-18T01:36:02;9.50;;;5.70;;
22080;SDS011;11207;59.512;18.050;2023-11-18T01:38:28;7.60;;;5.93;;
22080;SDS011;11207;59.512;18.050;2023-11-18T01:40:55;6.90;;;5.63;;
22080;SDS011;11207;59.512;18.050;2023-11-18T01:43:22;9.07;;;6.43;;
22080;SDS011;11207;59.512;18.050;2023-11-18T01:45:48;6.17;;;5.57;;
22080;SDS011;11207;59.512;18.050;2023-11-18T01:48:14;6.00;;;5.40;;
22080;SDS011;11207;59.512;18.050;2023-11-18T01:50:41;7.90;;;6.00;;
22080;SDS011;11207;59.512;18.050;2023-11-18T01:53:08;7.87;;;6.10;;
22080;SDS011;11207;59.512;18.050;2023-11-18T01:55:35;6.83;;;6.03;;
22080;SDS011;11207;59.512;18.050;2023-11-18T01:58:02;12.13;;;6.47;;
22080;SDS011;11207;59.512;18.050;2023-11-18T02:00:34;8.23;;;5.87;;
22080;SDS011;11207;59.512;18.050;2023-11-18T02:03:03;6.17;;;5.47;;
22080;SDS011;11207;59.512;18.050;2023-11-18T02:05:30;6.33;;;5.73;;
22080;SDS011;11207;59.512;18.050;2023-11-18T02:07:57;6.53;;;5.83;;
22080;SDS011;11207;59.512;18.050;2023-11-18T02:10:29;7.00;;;5.60;;
22080;SDS011;11207;59.512;18.050;2023-11-18T02:15:32;6.87;;;5.63;;
22080;SDS011;11207;59.512;18.050;2023-11-18T02:18:01;6.23;;;5.63;;
22080;SDS011;11207;59.512;18.050;2023-11-18T02:20:31;8.17;;;6.30;;
22080;SDS011;11207;59.512;18.050;2023-11-18T02:22:58;7.37;;;5.97;;
22080;SDS011;11207;59.512;18.050;2023-11-18T02:25:26;7.03;;;5.90;;
22080;SDS011;11207;59.512;18.050;2023-11-18T02:27:53;7.93;;;5.57;;
22080;SDS011;11207;59.512;18.050;2023-11-18T02:30:19;6.10;;;5.50;;
22080;SDS011;11207;59.512;18.050;2023-11-18T02:32:57;6.47;;;5.60;;
22080;SDS011;11207;59.512;18.050;2023-11-18T02:35:32;10.23;;;6.53;;
22080;SDS011;11207;59.512;18.050;2023-11-18T02:38:02;7.07;;;6.10;;
22080;SDS011;11207;59.512;18.050;2023-11-18T02:40:33;6.23;;;5.60;;
22080;SDS011;11207;59.512;18.050;2023-11-18T02:43:01;7.30;;;5.53;;
22080;SDS011;11207;59.512;18.050;2023-11-18T02:45:32;6.07;;;5.47;;
22080;SDS011;11207;59.512;18.050;2023-11-18T02:48:01;7.80;;;5.73;;
22080;SDS011;11207;59.512;18.050;2023-11-18T02:50:27;6.10;;;5.37;;
22080;SDS011;11207;59.512;18.050;2023-11-18T02:52:56;5.70;;;5.13;;
22080;SDS011;11207;59.512;18.050;2023-11-18T02:55:22;6.53;;;5.70;;
22080;SDS011;11207;59.512;18.050;2023-11-18T02:57:49;5.67;;;4.90;;
22080;SDS011;11207;59.512;18.050;2023-11-18T03:00:16;6.23;;;5.43;;
22080;SDS011;11207;59.512;18.050;2023-11-18T03:02:46;6.27;;;5.43;;
22080;SDS011;11207;59.512;18.050;2023-11-18T03:05:13;5.53;;;5.03;;
22080;SDS011;11207;59.512;18.050;2023-11-18T03:07:48;6.70;;;5.17;;
22080;SDS011;11207;59.512;18.050;2023-11-18T03:10:20;6.33;;;5.33;;
22080;SDS011;11207;59.512;18.050;2023-11-18T03:12:55;5.63;;;5.13;;
22080;SDS011;11207;59.512;18.050;2023-11-18T03:15:22;5.70;;;5.10;;
22080;SDS011;11207;59.512;18.050;2023-11-18T03:17:49;6.00;;;5.40;;
22080;SDS011;11207;59.512;18.050;2023-11-18T03:20:15;5.97;;;5.00;;
22080;SDS011;11207;59.512;18.050;2023-11-18T03:22:48;5.77;;;5.00;;
22080;SDS011;11207;59.512;18.050;2023-11-18T03:25:15;5.07;;;4.60;;
22080;SDS011;11207;59.512;18.050;2023-11-18T03:27:41;5.20;;;4.70;;
22080;SDS011;11207;59.512;18.050;2023-11-18T03:30:07;6.83;;;5.00;;
22080;SDS011;11207;59.512;18.050;2023-11-18T03:32:34;6.10;;;4.90;;
22080;SDS011;11207;59.512;18.050;2023-11-18T03:35:04;5.47;;;4.87;;
22080;SDS011;11207;59.512;18.050;2023-11-18T03:37:34;5.10;;;4.70;;
22080;SDS011;11207;59.512;18.050;2023-11-18T03:40:01;6.00;;;4.83;;
22080;SDS011;11207;59.512;18.050;2023-11-18T03:42:26;5.80;;;4.80;;
22080;SDS011;11207;59.512;18.050;2023-11-18T03:44:52;5.47;;;4.90;;
22080;SDS011;11207;59.512;18.050;2023-11-18T03:47:18;6.03;;;4.80;;
22080;SDS011;11207;59.512;18.050;2023-11-18T03:49:43;6.13;;;4.40;;
22080;SDS011;11207;59.512;18.050;2023-11-18T03:52:09;4.97;;;4.53;;
22080;SDS011;11207;59.512;18.050;2023-11-18T03:54:35;5.73;;;4.87;;
22080;SDS011;11207;59.512;18.050;2023-11-18T03:57:00;4.83;;;4.43;;
22080;SDS011;11207;59.512;18.050;2023-11-18T03:59:26;6.03;;;4.30;;
22080;SDS011;11207;59.512;18.050;2023-11-18T04:01:51;4.90;;;4.50;;
22080;SDS011;11207;59.512;18.050;2023-11-18T04:04:18;5.77;;;5.10;;
22080;SDS011;11207;59.512;18.050;2023-11-18T04:06:44;5.67;;;4.80;;
22080;SDS011;11207;59.512;18.050;2023-11-18T04:09:11;5.40;;;4.90;;
22080;SDS011;11207;59.512;18.050;2023-11-18T04:11:38;4.90;;;4.50;;
22080;SDS011;11207;59.512;18.050;2023-11-18T04:14:03;6.10;;;4.80;;
22080;SDS011;11207;59.512;18.050;2023-11-18T04:16:29;5.37;;;4.70;;
22080;SDS011;11207;59.512;18.050;2023-11-18T04:18:55;4.77;;;4.37;;
22080;SDS011;11207;59.512;18.050;2023-11-18T04:21:21;5.53;;;5.03;;
22080;SDS011;11207;59.512;18.050;2023-11-18T04:23:47;5.53;;;4.97;;
22080;SDS011;11207;59.512;18.050;2023-11-18T04:26:12;4.73;;;4.33;;
22080;SDS011;11207;59.512;18.050;2023-11-18T04:28:38;5.43;;;4.93;;
22080;SDS011;11207;59.512;18.050;2023-11-18T04:31:04;6.60;;;4.97;;
22080;SDS011;11207;59.512;18.050;2023-11-18T04:33:30;5.57;;;5.07;;
22080;SDS011;11207;59.512;18.050;2023-11-18T04:35:56;5.93;;;5.40;;
22080;SDS011;11207;59.512;18.050;2023-11-18T04:38:22;5.70;;;5.10;;
22080;SDS011;11207;59.512;18.050;2023-11-18T04:40:48;6.37;;;5.30;;
22080;SDS011;11207;59.512;18.050;2023-11-18T04:43:14;5.40;;;4.90;;
22080;SDS011;11207;59.512;18.050;2023-11-18T04:45:40;5.30;;;4.77;;
22080;SDS011;11207;59.512;18.050;2023-11-18T04:48:08;5.73;;;4.90;;
22080;SDS011;11207;59.512;18.050;2023-11-18T04:50:34;5.90;;;5.20;;
22080;SDS011;11207;59.512;18.050;2023-11-18T04:53:01;9.17;;;5.63;;
22080;SDS011;11207;59.512;18.050;2023-11-18T04:55:28;5.43;;;4.93;;
22080;SDS011;11207;59.512;18.050;2023-11-18T04:57:54;6.43;;;5.53;;
22080;SDS011;11207;59.512;18.050;2023-11-18T05:00:20;6.57;;;5.80;;
22080;SDS011;11207;59.512;18.050;2023-11-18T05:02:47;5.40;;;4.90;;
22080;SDS011;11207;59.512;18.050;2023-11-18T05:05:13;6.23;;;5.63;;
22080;SDS011;11207;59.512;18.050;2023-11-18T05:07:40;5.90;;;5.30;;
22080;SDS011;11207;59.512;18.050;2023-11-18T05:10:07;6.53;;;5.70;;
22080;SDS011;11207;59.512;18.050;2023-11-18T05:12:34;7.63;;;5.60;;
22080;SDS011;11207;59.512;18.050;2023-11-18T05:15:00;5.40;;;4.90;;
22080;SDS011;11207;59.512;18.050;2023-11-18T05:17:26;6.43;;;5.33;;
22080;SDS011;11207;59.512;18.050;2023-11-18T05:19:52;5.93;;;5.40;;
22080;SDS011;11207;59.512;18.050;2023-11-18T05:22:18;7.63;;;5.87;;
22080;SDS011;11207;59.512;18.050;2023-11-18T05:24:45;6.10;;;5.30;;
22080;SDS011;11207;59.512;18.050;2023-11-18T05:27:11;6.17;;;5.57;;
22080;SDS011;11207;59.512;18.050;2023-11-18T05:29:37;6.03;;;5.43;;
22080;SDS011;11207;59.512;18.050;2023-11-18T05:32:03;6.00;;;5.07;;
22080;SDS011;11207;59.512;18.050;2023-11-18T05:34:29;5.20;;;4.70;;
22080;SDS011;11207;59.512;18.050;2023-11-18T05:36:55;5.23;;;4.77;;
22080;SDS011;11207;59.512;18.050;2023-11-18T05:39:20;5.57;;;5.07;;
22080;SDS011;11207;59.512;18.050;2023-11-18T05:41:49;5.40;;;4.90;;
22080;SDS011;11207;59.512;18.050;2023-11-18T05:44:16;5.70;;;5.20;;
22080;SDS011;11207;59.512;18.050;2023-11-18T05:46:44;5.40;;;4.90;;
22080;SDS011;11207;59.512;18.050;2023-11-18T05:49:16;5.97;;;5.20;;
22080;SDS011;11207;59.512;18.050;2023-11-18T05:51:43;5.23;;;4.77;;
22080;SDS011;11207;59.512;18.050;2023-11-18T05:54:10;4.87;;;4.40;;
22080;SDS011;11207;59.512;18.050;2023-11-18T05:56:36;4.80;;;4.40;;
22080;SDS011;11207;59.512;18.050;2023-11-18T05:59:02;6.43;;;5.33;;
22080;SDS011;11207;59.512;18.050;2023-11-18T06:01:28;4.90;;;4.50;;
22080;SDS011;11207;59.512;18.050;2023-11-18T06:03:55;5.50;;;4.90;;
22080;SDS011;11207;59.512;18.050;2023-11-18T06:06:25;7.43;;;5.67;;
22080;SDS011;11207;59.512;18.050;2023-11-18T06:08:51;6.33;;;5.13;;
22080;SDS011;11207;59.512;18.050;2023-11-18T06:11:18;6.37;;;5.50;;
22080;SDS011;11207;59.512;18.050;2023-11-18T06:13:48;6.93;;;5.10;;
22080;SDS011;11207;59.512;18.050;2023-11-18T06:16:17;5.97;;;5.37;;
22080;SDS011;11207;59.512;18.050;2023-11-18T06:18:45;6.03;;;5.23;;
22080;SDS011;11207;59.512;18.050;2023-11-18T06:21:16;6.03;;;5.43;;
22080;SDS011;11207;59.512;18.050;2023-11-18T06:23:43;6.40;;;5.23;;
22080;SDS011;11207;59.512;18.050;2023-11-18T06:26:11;8.67;;;5.80;;
22080;SDS011;11207;59.512;18.050;2023-11-18T06:28:38;4.90;;;4.50;;
22080;SDS011;11207;59.512;18.050;2023-11-18T06:31:05;5.63;;;5.10;;
22080;SDS011;11207;59.512;18.050;2023-11-18T06:33:44;6.20;;;5.60;;
22080;SDS011;11207;59.512;18.050;2023-11-18T06:38:39;6.43;;;5.63;;
22080;SDS011;11207;59.512;18.050;2023-11-18T06:41:09;6.40;;;5.70;;
22080;SDS011;11207;59.512;18.050;2023-11-18T06:43:37;6.63;;;5.47;;
22080;SDS011;11207;59.512;18.050;2023-11-18T06:48:51;5.53;;;5.07;;
22080;SDS011;11207;59.512;18.050;2023-11-18T06:51:23;5.40;;;4.90;;
22080;SDS011;11207;59.512;18.050;2023-11-18T06:53:50;5.30;;;4.90;;
22080;SDS011;11207;59.512;18.050;2023-11-18T06:56:17;5.60;;;5.10;;
22080;SDS011;11207;59.512;18.050;2023-11-18T06:58:43;6.23;;;5.47;;
22080;SDS011;11207;59.512;18.050;2023-11-18T07:01:12;6.13;;;5.60;;
22080;SDS011;11207;59.512;18.050;2023-11-18T07:03:47;5.07;;;4.67;;
22080;SDS011;11207;59.512;18.050;2023-11-18T07:06:17;4.90;;;4.50;;
22080;SDS011;11207;59.512;18.050;2023-11-18T07:08:48;6.00;;;5.47;;
22080;SDS011;11207;59.512;18.050;2023-11-18T07:11:15;5.47;;;4.97;;
22080;SDS011;11207;59.512;18.050;2023-11-18T07:13:42;6.37;;;4.80;;
22080;SDS011;11207;59.512;18.050;2023-11-18T07:16:13;5.57;;;5.07;;
22080;SDS011;11207;59.512;18.050;2023-11-18T07:18:41;5.57;;;5.03;;
22080;SDS011;11207;59.512;18.050;2023-11-18T07:21:09;5.50;;;4.73;;
22080;SDS011;11207;59.512;18.050;2023-11-18T07:23:35;5.40;;;4.90;;
22080;SDS011;11207;59.512;18.050;2023-11-18T07:26:01;5.53;;;5.07;;
22080;SDS011;11207;59.512;18.050;2023-11-18T07:28:29;4.93;;;4.53;;
22080;SDS011;11207;59.512;18.050;2023-11-18T07:30:57;5.50;;;5.00;;
22080;SDS011;11207;59.512;18.050;2023-11-18T07:33:25;4.90;;;4.50;;
22080;SDS011;11207;59.512;18.050;2023-11-18T07:35:51;5.37;;;4.87;;
22080;SDS011;11207;59.512;18.050;2023-11-18T07:38:18;4.73;;;4.33;;
22080;SDS011;11207;59.512;18.050;2023-11-18T07:40:47;4.80;;;4.30;;
22080;SDS011;11207;59.512;18.050;2023-11-18T07:43:15;5.57;;;5.00;;
22080;SDS011;11207;59.512;18.050;2023-11-18T07:45:41;6.53;;;4.80;;
22080;SDS011;11207;59.512;18.050;2023-11-18T07:48:09;5.20;;;4.70;;
22080;SDS011;11207;59.512;18.050;2023-11-18T07:50:37;5.17;;;4.73;;
22080;SDS011;11207;59.512;18.050;2023-11-18T07:53:07;5.00;;;4.60;;
22080;SDS011;11207;59.512;18.050;2023-11-18T07:55:33;4.93;;;4.53;;
22080;SDS011;11207;59.512;18.050;2023-11-18T07:58:00;5.20;;;4.53;;
22080;SDS011;11207;59.512;18.050;2023-11-18T08:00:27;5.30;;;4.70;;
22080;SDS011;11207;59.512;18.050;2023-11-18T08:02:57;4.93;;;4.43;;
22080;SDS011;11207;59.512;18.050;2023-11-18T08:05:26;4.93;;;4.53;;
22080;SDS011;11207;59.512;18.050;2023-11-18T08:07:56;4.93;;;4.53;;
22080;SDS011;11207;59.512;18.050;2023-11-18T08:10:25;4.70;;;4.30;;
22080;SDS011;11207;59.512;18.050;2023-11-18T08:12:55;4.47;;;4.10;;
22080;SDS011;11207;59.512;18.050;2023-11-18T08:15:21;4.30;;;4.00;;
22080;SDS011;11207;59.512;18.050;2023-11-18T08:17:52;4.40;;;4.10;;
22080;SDS011;11207;59.512;18.050;2023-11-18T08:20:18;4.83;;;4.43;;
22080;SDS011;11207;59.512;18.050;2023-11-18T08:22:49;4.37;;;4.03;;
22080;SDS011;11207;59.512;18.050;2023-11-18T08:25:15;4.13;;;3.80;;
22080;SDS011;11207;59.512;18.050;2023-11-18T08:27:44;4.30;;;3.90;;
22080;SDS011;11207;59.512;18.050;2023-11-18T08:30:13;4.00;;;3.70;;
22080;SDS011;11207;59.512;18.050;2023-11-18T08:32:43;4.20;;;3.90;;
22080;SDS011;11207;59.512;18.050;2023-11-18T08:35:11;3.80;;;3.50;;
22080;SDS011;11207;59.512;18.050;2023-11-18T08:37:42;4.23;;;3.93;;
22080;SDS011;11207;59.512;18.050;2023-11-18T08:40:10;4.03;;;3.63;;
22080;SDS011;11207;59.512;18.050;2023-11-18T08:42:49;3.93;;;3.63;;
22080;SDS011;11207;59.512;18.050;2023-11-18T08:45:17;3.80;;;3.60;;
22080;SDS011;11207;59.512;18.050;2023-11-18T08:47:48;4.53;;;3.90;;
22080;SDS011;11207;59.512;18.050;2023-11-18T08:50:15;3.60;;;3.40;;
22080;SDS011;11207;59.512;18.050;2023-11-18T08:52:43;4.33;;;4.00;;
22080;SDS011;11207;59.512;18.050;2023-11-18T08:55:12;4.20;;;3.90;;
22080;SDS011;11207;59.512;18.050;2023-11-18T08:57:45;3.93;;;3.73;;
22080;SDS011;11207;59.512;18.050;2023-11-18T09:00:28;3.87;;;3.67;;
22080;SDS011;11207;59.512;18.050;2023-11-18T09:03:22;4.10;;;3.80;;
22080;SDS011;11207;59.512;18.050;2023-11-18T09:05:53;4.20;;;3.90;;
22080;SDS011;11207;59.512;18.050;2023-11-18T09:08:25;4.17;;;3.87;;
22080;SDS011;11207;59.512;18.050;2023-11-18T09:11:02;4.17;;;3.87;;
22080;SDS011;11207;59.512;18.050;2023-11-18T09:13:33;4.40;;;4.10;;
22080;SDS011;11207;59.512;18.050;2023-11-18T09:16:02;4.17;;;3.87;;
22080;SDS011;11207;59.512;18.050;2023-11-18T09:18:35;4.40;;;4.10;;
22080;SDS011;11207;59.512;18.050;2023-11-18T09:21:02;4.43;;;4.13;;
22080;SDS011;11207;59.512;18.050;2023-11-18T09:23:31;4.23;;;3.83;;
22080;SDS011;11207;59.512;18.050;2023-11-18T09:26:00;4.20;;;3.90;;
22080;SDS011;11207;59.512;18.050;2023-11-18T09:28:31;4.77;;;4.37;;
22080;SDS011;11207;59.512;18.050;2023-11-18T09:30:57;4.33;;;4.03;;
22080;SDS011;11207;59.512;18.050;2023-11-18T09:33:25;4.10;;;3.70;;
22080;SDS011;11207;59.512;18.050;2023-11-18T09:35:54;4.43;;;4.10;;
22080;SDS011;11207;59.512;18.050;2023-11-18T09:38:28;3.67;;;3.47;;
22080;SDS011;11207;59.512;18.050;2023-11-18T09:40:56;4.43;;;4.03;;
22080;SDS011;11207;59.512;18.050;2023-11-18T09:43:31;4.20;;;3.90;;
22080;SDS011;11207;59.512;18.050;2023-11-18T09:46:13;4.27;;;3.97;;
22080;SDS011;11207;59.512;18.050;2023-11-18T09:48:45;4.03;;;3.73;;
22080;SDS011;11207;59.512;18.050;2023-11-18T09:51:22;4.10;;;3.80;;
22080;SDS011;11207;59.512;18.050;2023-11-18T09:53:49;4.90;;;3.70;;
22080;SDS011;11207;59.512;18.050;2023-11-18T09:56:22;4.33;;;4.03;;
22080;SDS011;11207;59.512;18.050;2023-11-18T09:59:14;3.90;;;3.70;;
22080;SDS011;11207;59.512;18.050;2023-11-18T10:01:53;4.27;;;3.87;;
22080;SDS011;11207;59.512;18.050;2023-11-18T10:04:23;5.23;;;4.13;;
22080;SDS011;11207;59.512;18.050;2023-11-18T10:06:55;4.00;;;3.70;;
22080;SDS011;11207;59.512;18.050;2023-11-18T10:09:23;4.20;;;3.90;;
22080;SDS011;11207;59.512;18.050;2023-11-18T10:12:05;4.17;;;3.87;;
22080;SDS011;11207;59.512;18.050;2023-11-18T10:14:34;3.70;;;3.50;;
22080;SDS011;11207;59.512;18.050;2023-11-18T10:17:04;4.17;;;3.87;;
22080;SDS011;11207;59.512;18.050;2023-11-18T10:22:23;4.27;;;3.97;;
22080;SDS011;11207;59.512;18.050;2023-11-18T10:24:54;4.30;;;4.00;;
22080;SDS011;11207;59.512;18.050;2023-11-18T10:27:23;4.20;;;3.90;;
22080;SDS011;11207;59.512;18.050;2023-11-18T10:29:56;4.10;;;3.80;;
22080;SDS011;11207;59.512;18.050;2023-11-18T10:32:24;4.40;;;4.10;;
22080;SDS011;11207;59.512;18.050;2023-11-18T10:34:55;3.97;;;3.77;;
22080;SDS011;11207;59.512;18.050;2023-11-18T10:37:25;4.10;;;3.80;;
22080;SDS011;11207;59.512;18.050;2023-11-18T10:40:03;4.17;;;3.90;;
22080;SDS011;11207;59.512;18.050;2023-11-18T10:42:31;4.03;;;3.73;;
22080;SDS011;11207;59.512;18.050;2023-11-18T10:44:59;4.10;;;3.80;;
22080;SDS011;11207;59.512;18.050;2023-11-18T10:47:28;4.47;;;4.13;;
22080;SDS011;11207;59.512;18.050;2023-11-18T10:49:57;4.17;;;3.87;;
22080;SDS011;11207;59.512;18.050;2023-11-18T10:52:25;4.43;;;4.13;;
22080;SDS011;11207;59.512;18.050;2023-11-18T10:54:55;4.00;;;3.80;;
22080;SDS011;11207;59.512;18.050;2023-11-18T10:57:22;4.10;;;3.80;;
22080;SDS011;11207;59.512;18.050;2023-11-18T11:00:00;4.60;;;4.20;;
22080;SDS011;11207;59.512;18.050;2023-11-18T11:02:30;4.30;;;4.00;;
22080;SDS011;11207;59.512;18.050;2023-11-18T11:05:01;4.75;;;3.87;;
22080;SDS011;11207;59.512;18.050;2023-11-18T11:07:28;4.73;;;4.17;;
22080;SDS011;11207;59.512;18.050;2023-11-18T11:09:58;4.30;;;4.00;;
22080;SDS011;11207;59.512;18.050;2023-11-18T11:12:33;4.07;;;3.73;;
22080;SDS011;11207;59.512;18.050;2023-11-18T11:15:08;4.10;;;3.80;;
22080;SDS011;11207;59.512;18.050;2023-11-18T11:17:48;4.60;;;4.20;;
22080;SDS011;11207;59.512;18.050;2023-11-18T11:20:23;4.53;;;4.13;;
22080;SDS011;11207;59.512;18.050;2023-11-18T11:23:01;4.33;;;4.03;;
22080;SDS011;11207;59.512;18.050;2023-11-18T11:31:44;4.30;;;4.00;;
22080;SDS011;11207;59.512;18.050;2023-11-18T11:34:19;3.77;;;3.53;;
22080;SDS011;11207;59.512;18.050;2023-11-18T11:36:46;4.40;;;4.10;;
22080;SDS011;11207;59.512;18.050;2023-11-18T11:39:17;4.50;;;4.20;;
22080;SDS011;11207;59.512;18.050;2023-11-18T11:41:52;4.40;;;4.10;;
22080;SDS011;11207;59.512;18.050;2023-11-18T11:44:23;4.40;;;4.10;;
22080;SDS011;11207;59.512;18.050;2023-11-18T11:46:59;4.23;;;3.93;;
22080;SDS011;11207;59.512;18.050;2023-11-18T11:49:27;3.80;;;3.60;;
22080;SDS011;11207;59.512;18.050;2023-11-18T11:52:10;4.37;;;4.07;;
22080;SDS011;11207;59.512;18.050;2023-11-18T11:54:55;4.47;;;4.17;;
22080;SDS011;11207;59.512;18.050;2023-11-18T11:57:55;4.57;;;4.20;;
22080;SDS011;11207;59.512;18.050;2023-11-18T12:00:25;4.27;;;3.97;;
22080;SDS011;11207;59.512;18.050;2023-11-18T12:03:00;4.20;;;3.90;;
22080;SDS011;11207;59.512;18.050;2023-11-18T12:05:30;4.87;;;4.47;;
22080;SDS011;11207;59.512;18.050;2023-11-18T12:07:59;3.90;;;3.67;;
22080;SDS011;11207;59.512;18.050;2023-11-18T12:10:26;5.07;;;4.57;;
22080;SDS011;11207;59.512;18.050;2023-11-18T12:13:07;4.23;;;3.80;;
22080;SDS011;11207;59.512;18.050;2023-11-18T12:18:20;4.23;;;3.93;;
22080;SDS011;11207;59.512;18.050;2023-11-18T12:20:47;6.23;;;3.97;;
22080;SDS011;11207;59.512;18.050;2023-11-18T12:23:20;3.90;;;3.60;;
22080;SDS011;11207;59.512;18.050;2023-11-18T12:25:50;4.70;;;4.30;;
22080;SDS011;11207;59.512;18.050;2023-11-18T12:28:29;3.80;;;3.60;;
22080;SDS011;11207;59.512;18.050;2023-11-18T12:31:02;4.30;;;3.90;;
22080;SDS011;11207;59.512;18.050;2023-11-18T12:42:10;3.80;;;3.60;;
22080;SDS011;11207;59.512;18.050;2023-11-18T12:45:12;4.57;;;4.20;;
22080;SDS011;11207;59.512;18.050;2023-11-18T12:47:56;4.27;;;3.87;;
22080;SDS011;11207;59.512;18.050;2023-11-18T12:50:28;4.33;;;4.03;;
22080;SDS011;11207;59.512;18.050;2023-11-18T12:52:58;6.33;;;4.07;;
22080;SDS011;11207;59.512;18.050;2023-11-18T12:55:24;4.73;;;4.33;;
22080;SDS011;11207;59.512;18.050;2023-11-18T12:57:52;5.63;;;4.20;;
22080;SDS011;11207;59.512;18.050;2023-11-18T13:00:20;4.50;;;4.10;;
22080;SDS011;11207;59.512;18.050;2023-11-18T13:02:54;4.70;;;4.30;;
22080;SDS011;11207;59.512;18.050;2023-11-18T13:05:24;4.10;;;3.70;;
22080;SDS011;11207;59.512;18.050;2023-11-18T13:07:56;4.50;;;4.10;;
22080;SDS011;11207;59.512;18.050;2023-11-18T13:10:27;4.43;;;4.13;;
22080;SDS011;11207;59.512;18.050;2023-11-18T13:12:54;4.67;;;4.37;;
22080;SDS011;11207;59.512;18.050;2023-11-18T13:15:21;4.70;;;4.30;;
22080;SDS011;11207;59.512;18.050;2023-11-18T13:17:56;4.57;;;4.13;;
22080;SDS011;11207;59.512;18.050;2023-11-18T13:22:02;6.63;;;4.50;;
22080;SDS011;11207;59.512;18.050;2023-11-18T13:24:41;4.20;;;3.90;;
22080;SDS011;11207;59.512;18.050;2023-11-18T13:27:13;4.37;;;3.97;;
22080;SDS011;11207;59.512;18.050;2023-11-18T13:29:46;4.10;;;3.80;;
22080;SDS011;11207;59.512;18.050;2023-11-18T13:32:19;4.03;;;3.80;;
22080;SDS011;11207;59.512;18.050;2023-11-18T13:34:51;4.47;;;4.10;;
22080;SDS011;11207;59.512;18.050;2023-11-18T13:37:19;4.33;;;4.03;;
22080;SDS011;11207;59.512;18.050;2023-11-18T13:39:54;4.57;;;4.17;;
22080;SDS011;11207;59.512;18.050;2023-11-18T13:42:22;4.77;;;4.37;;
22080;SDS011;11207;59.512;18.050;2023-11-18T13:44:50;4.30;;;3.90;;
22080;SDS011;11207;59.512;18.050;2023-11-18T13:47:18;4.00;;;3.70;;
22080;SDS011;11207;59.512;18.050;2023-11-18T13:49:48;4.57;;;4.27;;
22080;SDS011;11207;59.512;18.050;2023-11-18T13:52:19;3.90;;;3.60;;
22080;SDS011;11207;59.512;18.050;2023-11-18T13:54:47;5.27;;;3.90;;
22080;SDS011;11207;59.512;18.050;2023-11-18T13:57:15;3.90;;;3.70;;
22080;SDS011;11207;59.512;18.050;2023-11-18T13:59:43;4.20;;;3.90;;
22080;SDS011;11207;59.512;18.050;2023-11-18T14:02:09;4.40;;;4.00;;
22080;SDS011;11207;59.512;18.050;2023-11-18T14:04:36;4.27;;;4.00;;
22080;SDS011;11207;59.512;18.050;2023-11-18T14:07:05;4.57;;;4.27;;
22080;SDS011;11207;59.512;18.050;2023-11-18T14:09:32;4.10;;;3.80;;
22080;SDS011;11207;59.512;18.050;2023-11-18T14:12:02;3.80;;;3.60;;
22080;SDS011;11207;59.512;18.050;2023-11-18T14:14:33;5.17;;;4.67;;
22080;SDS011;11207;59.512;18.050;2023-11-18T14:16:59;4.60;;;4.20;;
22080;SDS011;11207;59.512;18.050;2023-11-18T14:19:27;4.17;;;3.83;;
22080;SDS011;11207;59.512;18.050;2023-11-18T14:21:56;4.43;;;4.00;;
22080;SDS011;11207;59.512;18.050;2023-11-18T14:24:24;5.47;;;4.50;;
22080;SDS011;11207;59.512;18.050;2023-11-18T14:26:57;4.30;;;4.00;;
22080;SDS011;11207;59.512;18.050;2023-11-18T14:29:25;4.60;;;4.30;;
22080;SDS011;11207;59.512;18.050;2023-11-18T14:31:54;4.90;;;4.10;;
22080;SDS011;11207;59.512;18.050;2023-11-18T14:34:21;4.60;;;4.20;;
22080;SDS011;11207;59.512;18.050;2023-11-18T14:36:48;4.17;;;3.87;;
22080;SDS011;11207;59.512;18.050;2023-11-18T14:39:16;4.57;;;4.27;;
22080;SDS011;11207;59.512;18.050;2023-11-18T14:41:45;4.53;;;4.23;;
22080;SDS011;11207;59.512;18.050;2023-11-18T14:44:12;4.47;;;4.17;;
22080;SDS011;11207;59.512;18.050;2023-11-18T14:46:39;4.70;;;4.30;;
22080;SDS011;11207;59.512;18.050;2023-11-18T14:49:07;4.20;;;3.90;;
22080;SDS011;11207;59.512;18.050;2023-11-18T14:51:36;4.10;;;3.80;;
22080;SDS011;11207;59.512;18.050;2023-11-18T14:54:02;4.37;;;4.07;;
22080;SDS011;11207;59.512;18.050;2023-11-18T14:56:29;4.43;;;4.10;;
22080;SDS011;11207;59.512;18.050;2023-11-18T14:58:55;4.67;;;4.27;;
22080;SDS011;11207;59.512;18.050;2023-11-18T15:01:22;4.50;;;4.20;;
22080;SDS011;11207;59.512;18.050;2023-11-18T15:03:50;5.00;;;4.57;;
22080;SDS011;11207;59.512;18.050;2023-11-18T15:06:23;4.17;;;3.87;;
22080;SDS011;11207;59.512;18.050;2023-11-18T15:08:51;4.30;;;4.00;;
22080;SDS011;11207;59.512;18.050;2023-11-18T15:11:22;4.47;;;4.10;;
22080;SDS011;11207;59.512;18.050;2023-11-18T15:13:50;4.60;;;4.20;;